Time;durP1;ratioP1;P1;durP2;ratioP2;P2;SDS_P1;SDS_P2;PMS_P1;PMS_P2;Temp;Humidity;BMP_temperature;BMP_pressure;BME280_temperature;BME280_humidity;BME280_pressure;Samples;Min_cycle;Max_cycle;Signal;HPM_P1;HPM_P2
2023/04/14 00:00:37;;;;;;;4.10;1.98;;;;;;;;;;4992381;28;20056;-71
2023/04/14 00:03:02;;;;;;;3.00;2.45;;;;;;;;;;4991916;28;20109;-70
2023/04/14 00:05:32;;;;;;;4.90;2.95;;;;;;;;;;4990414;28;20061;-71
2023/04/14 00:07:58;;;;;;;5.32;2.10;;;;;;;;;;4990567;28;20050;-70
2023/04/14 00:10:24;;;;;;;3.47;2.30;;;;;;;;;;4992139;28;20415;-70
2023/04/14 00:12:50;;;;;;;2.47;2.13;;;;;;;;;;4991742;28;20108;-72
2023/04/14 00:15:15;;;;;;;2.33;2.13;;;;;;;;;;4991370;28;20046;-70
2023/04/14 00:17:41;;;;;;;3.28;2.33;;;;;;;;;;4991273;28;20050;-70
2023/04/14 00:20:07;;;;;;;3.40;2.30;;;;;;;;;;4991799;28;20042;-70
2023/04/14 00:22:33;;;;;;;3.45;2.38;;;;;;;;;;4991735;28;20065;-70
2023/04/14 00:24:58;;;;;;;2.13;1.85;;;;;;;;;;4991537;28;20495;-69
2023/04/14 00:27:24;;;;;;;3.92;2.53;;;;;;;;;;4994372;28;20042;-70
2023/04/14 00:29:50;;;;;;;5.45;2.45;;;;;;;;;;4991611;28;20049;-70
2023/04/14 00:32:15;;;;;;;2.53;2.17;;;;;;;;;;4991495;28;20062;-70
2023/04/14 00:34:41;;;;;;;5.32;2.22;;;;;;;;;;4990091;28;20052;-69
2023/04/14 00:37:06;;;;;;;2.67;2.15;;;;;;;;;;4991400;28;20499;-69
2023/04/14 00:39:32;;;;;;;2.45;2.20;;;;;;;;;;4990009;28;20077;-70
2023/04/14 00:42:01;;;;;;;4.63;2.08;;;;;;;;;;4991018;28;20535;-71
2023/04/14 00:44:26;;;;;;;6.50;2.22;;;;;;;;;;4991210;28;20454;-70
2023/04/14 00:46:52;;;;;;;4.30;2.40;;;;;;;;;;4970374;28;20138;-70
2023/04/14 00:49:18;;;;;;;4.35;2.08;;;;;;;;;;4979401;28;20042;-71
2023/04/14 00:51:44;;;;;;;5.97;2.50;;;;;;;;;;4990833;28;20057;-69
2023/04/14 00:54:11;;;;;;;3.78;1.85;;;;;;;;;;4989726;28;20050;-71
2023/04/14 00:56:37;;;;;;;2.75;2.45;;;;;;;;;;4989681;28;20053;-70
2023/04/14 00:59:05;;;;;;;4.88;2.60;;;;;;;;;;4989725;28;20046;-70
2023/04/14 01:01:33;;;;;;;3.45;2.40;;;;;;;;;;4987871;28;20046;-70
2023/04/14 01:03:59;;;;;;;3.70;2.28;;;;;;;;;;4990601;28;20198;-70
2023/04/14 01:06:26;;;;;;;2.65;1.90;;;;;;;;;;4989141;28;20049;-72
2023/04/14 01:08:52;;;;;;;2.67;2.40;;;;;;;;;;4989207;28;20050;-73
2023/04/14 01:11:40;;;;;;;3.60;2.25;;;;;;;;;;4988787;28;20073;-73
2023/04/14 01:14:16;;;;;;;2.17;1.98;;;;;;;;;;5008031;28;20045;-69
2023/04/14 01:16:49;;;;;;;4.60;2.90;;;;;;;;;;5008591;28;20053;-70
2023/04/14 01:19:23;;;;;;;5.78;2.10;;;;;;;;;;5010567;28;20057;-69
2023/04/14 01:21:52;;;;;;;3.25;2.60;;;;;;;;;;5007147;28;20058;-74
2023/04/14 01:24:20;;;;;;;3.08;1.77;;;;;;;;;;4994358;28;20134;-70
2023/04/14 01:26:49;;;;;;;2.83;2.53;;;;;;;;;;4986228;28;20046;-72
2023/04/14 01:29:40;;;;;;;2.65;1.88;;;;;;;;;;4979434;28;20581;-70
2023/04/14 01:32:09;;;;;;;3.97;2.60;;;;;;;;;;4971903;28;20452;-71
2023/04/14 01:34:54;;;;;;;3.50;2.10;;;;;;;;;;4983949;28;20653;-73
2023/04/14 01:37:51;;;;;;;5.60;2.50;;;;;;;;;;4985771;28;20046;-70
2023/04/14 01:40:19;;;;;;;3.17;2.10;;;;;;;;;;4978316;28;20161;-70
2023/04/14 01:42:58;;;;;;;7.22;2.22;;;;;;;;;;4990015;28;20050;-70
2023/04/14 01:45:26;;;;;;;7.25;2.78;;;;;;;;;;4989387;28;20050;-70
2023/04/14 01:47:53;;;;;;;2.30;2.10;;;;;;;;;;5004056;28;20750;-71
2023/04/14 01:50:19;;;;;;;2.38;1.75;;;;;;;;;;4985244;28;20046;-71
2023/04/14 01:52:50;;;;;;;2.33;1.95;;;;;;;;;;4988617;28;20049;-70
2023/04/14 01:55:19;;;;;;;2.50;1.95;;;;;;;;;;4988563;28;20053;-71
2023/04/14 01:57:47;;;;;;;2.00;1.85;;;;;;;;;;5008123;28;20057;-71
2023/04/14 02:00:15;;;;;;;3.25;2.40;;;;;;;;;;5007005;28;20445;-71
2023/04/14 02:02:42;;;;;;;4.28;2.83;;;;;;;;;;5008262;28;20074;-71
2023/04/14 02:05:09;;;;;;;2.58;2.38;;;;;;;;;;5008080;28;20065;-72
2023/04/14 02:07:35;;;;;;;3.30;2.40;;;;;;;;;;5009157;28;20100;-70
2023/04/14 02:10:05;;;;;;;2.30;2.10;;;;;;;;;;5008572;28;20160;-69
2023/04/14 02:12:30;;;;;;;2.05;1.73;;;;;;;;;;5009429;28;20521;-73
2023/04/14 02:15:00;;;;;;;2.58;2.10;;;;;;;;;;5009193;28;20038;-70
2023/04/14 02:17:26;;;;;;;4.70;2.88;;;;;;;;;;5007409;28;20577;-71
2023/04/14 02:19:53;;;;;;;2.22;1.73;;;;;;;;;;5014470;28;20824;-70
2023/04/14 02:22:18;;;;;;;6.00;2.10;;;;;;;;;;5013215;28;20509;-70
2023/04/14 02:24:46;;;;;;;2.55;2.35;;;;;;;;;;5014453;28;20053;-70
2023/04/14 02:27:30;;;;;;;3.20;2.50;;;;;;;;;;5016186;28;20049;-71
2023/04/14 02:30:10;;;;;;;3.88;2.10;;;;;;;;;;4998825;28;20046;-71
2023/04/14 02:32:38;;;;;;;3.97;2.83;;;;;;;;;;5000529;28;20054;-71
2023/04/14 02:35:12;;;;;;;5.93;3.10;;;;;;;;;;4993770;28;20414;-71
2023/04/14 02:37:45;;;;;;;4.93;2.65;;;;;;;;;;4994463;28;20065;-71
2023/04/14 02:40:18;;;;;;;4.85;3.20;;;;;;;;;;4994977;28;20088;-72
2023/04/14 02:42:47;;;;;;;2.63;2.35;;;;;;;;;;4995392;28;20046;-71
2023/04/14 02:45:20;;;;;;;6.15;3.28;;;;;;;;;;4994460;28;20058;-71
2023/04/14 02:47:53;;;;;;;4.47;3.40;;;;;;;;;;4979274;28;20054;-71
2023/04/14 02:50:19;;;;;;;3.97;3.38;;;;;;;;;;4994809;28;20049;-70
2023/04/14 02:52:58;;;;;;;3.60;3.05;;;;;;;;;;5000142;28;20511;-70
2023/04/14 02:55:29;;;;;;;4.28;3.15;;;;;;;;;;5006213;28;20060;-71
2023/04/14 02:57:56;;;;;;;7.03;3.67;;;;;;;;;;5014268;28;20046;-70
2023/04/14 03:00:22;;;;;;;4.32;2.75;;;;;;;;;;5014252;28;20050;-71
2023/04/14 03:02:52;;;;;;;5.10;3.17;;;;;;;;;;5013826;28;20422;-70
2023/04/14 03:05:19;;;;;;;3.20;2.78;;;;;;;;;;5002143;28;20048;-72
2023/04/14 03:07:53;;;;;;;1.60;1.50;;;;;;;;;;4993940;28;20038;-73
2023/04/14 03:10:20;;;;;;;3.50;2.63;;;;;;;;;;4994714;28;20038;-72
2023/04/14 03:12:47;;;;;;;4.93;2.97;;;;;;;;;;4977932;28;20053;-72
2023/04/14 03:15:16;;;;;;;3.67;3.22;;;;;;;;;;5002540;28;20046;-72
2023/04/14 03:17:46;;;;;;;3.50;2.85;;;;;;;;;;5013661;28;20084;-72
2023/04/14 03:20:14;;;;;;;3.70;2.42;;;;;;;;;;5014133;28;20057;-71
2023/04/14 03:22:42;;;;;;;4.30;2.55;;;;;;;;;;5013915;28;20418;-71
2023/04/14 03:25:11;;;;;;;5.85;2.90;;;;;;;;;;5012954;28;20133;-73
2023/04/14 03:27:38;;;;;;;3.58;2.42;;;;;;;;;;5013294;28;20041;-72
2023/04/14 03:30:08;;;;;;;2.78;2.58;;;;;;;;;;5011452;28;20499;-71
2023/04/14 03:32:40;;;;;;;3.30;2.53;;;;;;;;;;5007654;28;20058;-71
2023/04/14 03:35:08;;;;;;;4.20;3.25;;;;;;;;;;4975829;28;20053;-71
2023/04/14 03:37:38;;;;;;;4.13;3.35;;;;;;;;;;4983500;28;20050;-71
2023/04/14 03:40:07;;;;;;;5.03;4.32;;;;;;;;;;4991103;28;20419;-71
2023/04/14 03:42:34;;;;;;;3.70;3.22;;;;;;;;;;4991005;28;20068;-71
2023/04/14 03:45:01;;;;;;;2.65;1.98;;;;;;;;;;4987111;28;20038;-72
2023/04/14 03:47:30;;;;;;;3.65;2.75;;;;;;;;;;4989484;28;20125;-72
2023/04/14 03:50:02;;;;;;;3.97;2.85;;;;;;;;;;4990912;28;20104;-72
2023/04/14 03:52:35;;;;;;;6.60;3.05;;;;;;;;;;4971385;28;20035;-72
2023/04/14 03:55:05;;;;;;;4.22;3.38;;;;;;;;;;4971320;28;20042;-72
2023/04/14 03:57:32;;;;;;;3.55;3.05;;;;;;;;;;4970905;28;20522;-71
2023/04/14 04:00:04;;;;;;;4.55;3.47;;;;;;;;;;4979267;28;20525;-72
2023/04/14 04:02:39;;;;;;;5.78;4.28;;;;;;;;;;4985853;28;20038;-72
2023/04/14 04:05:07;;;;;;;6.50;4.40;;;;;;;;;;4992014;28;20499;-72
2023/04/14 04:07:34;;;;;;;4.22;3.45;;;;;;;;;;4990059;28;20134;-72
2023/04/14 04:10:02;;;;;;;4.32;3.72;;;;;;;;;;4991229;28;20078;-71
2023/04/14 04:12:29;;;;;;;5.20;4.20;;;;;;;;;;4990209;28;20422;-72
2023/04/14 04:14:55;;;;;;;4.75;3.35;;;;;;;;;;4990444;28;20054;-71
2023/04/14 04:17:23;;;;;;;4.38;3.45;;;;;;;;;;4989712;28;20049;-71
2023/04/14 04:19:50;;;;;;;4.03;3.28;;;;;;;;;;4993910;28;20049;-71
2023/04/14 04:22:20;;;;;;;5.00;4.10;;;;;;;;;;5008878;28;20045;-72
2023/04/14 04:24:46;;;;;;;6.65;4.72;;;;;;;;;;5009490;28;20347;-73
2023/04/14 04:27:18;;;;;;;6.45;4.70;;;;;;;;;;5010192;28;20401;-72
2023/04/14 04:29:44;;;;;;;5.35;4.22;;;;;;;;;;4990745;28;20042;-72
2023/04/14 04:32:10;;;;;;;5.97;3.92;;;;;;;;;;4995612;28;20560;-72
2023/04/14 04:34:37;;;;;;;6.13;4.57;;;;;;;;;;4989721;28;20134;-72
2023/04/14 04:37:04;;;;;;;5.53;3.83;;;;;;;;;;4990148;28;20109;-72
2023/04/14 04:39:29;;;;;;;5.60;4.45;;;;;;;;;;4973364;28;20399;-72
2023/04/14 04:42:03;;;;;;;5.47;4.22;;;;;;;;;;4989676;28;20662;-72
2023/04/14 04:44:31;;;;;;;5.20;4.10;;;;;;;;;;4988966;28;20053;-73
2023/04/14 04:46:57;;;;;;;6.38;4.13;;;;;;;;;;4989742;28;20097;-72
2023/04/14 04:49:25;;;;;;;6.45;4.22;;;;;;;;;;5006346;28;20053;-72
2023/04/14 04:51:53;;;;;;;5.45;3.95;;;;;;;;;;5009287;28;20045;-70
2023/04/14 04:54:19;;;;;;;5.63;3.90;;;;;;;;;;4991706;28;20042;-72
2023/04/14 04:56:45;;;;;;;4.55;3.08;;;;;;;;;;5010285;28;20046;-72
2023/04/14 04:59:11;;;;;;;4.32;3.13;;;;;;;;;;5009526;28;20061;-72
2023/04/14 05:01:36;;;;;;;5.68;3.70;;;;;;;;;;5009792;28;20056;-72
2023/04/14 05:04:02;;;;;;;6.15;3.90;;;;;;;;;;5010502;28;20041;-73
2023/04/14 05:06:27;;;;;;;6.10;4.38;;;;;;;;;;5009369;28;20049;-72
2023/04/14 05:08:54;;;;;;;5.82;4.95;;;;;;;;;;5010490;28;20046;-73
2023/04/14 05:11:20;;;;;;;7.05;4.72;;;;;;;;;;5008247;28;20069;-72
2023/04/14 05:13:46;;;;;;;5.32;4.28;;;;;;;;;;5010162;28;20082;-73
2023/04/14 05:16:15;;;;;;;4.25;3.85;;;;;;;;;;5009398;28;20589;-72
2023/04/14 05:18:41;;;;;;;5.80;4.55;;;;;;;;;;5010106;28;20084;-72
2023/04/14 05:21:09;;;;;;;4.45;3.22;;;;;;;;;;5010410;28;20042;-72
2023/04/14 05:23:37;;;;;;;2.47;2.28;;;;;;;;;;5009346;28;20085;-72
2023/04/14 05:26:05;;;;;;;2.22;2.05;;;;;;;;;;5010445;28;20514;-72
2023/04/14 05:28:31;;;;;;;3.10;2.80;;;;;;;;;;5008960;28;20038;-72
2023/04/14 05:30:56;;;;;;;4.60;3.45;;;;;;;;;;5008611;28;20049;-72
2023/04/14 05:33:21;;;;;;;3.67;3.03;;;;;;;;;;5009066;28;20410;-72
2023/04/14 05:35:49;;;;;;;4.45;3.05;;;;;;;;;;5009929;28;20084;-72
2023/04/14 05:38:16;;;;;;;4.55;3.42;;;;;;;;;;5001581;28;20133;-73
2023/04/14 05:40:42;;;;;;;3.65;3.35;;;;;;;;;;4990260;28;20181;-72
2023/04/14 05:43:07;;;;;;;4.78;3.38;;;;;;;;;;4990202;28;20140;-72
2023/04/14 05:45:33;;;;;;;5.13;3.40;;;;;;;;;;4989429;28;20092;-73
2023/04/14 05:47:58;;;;;;;6.30;4.13;;;;;;;;;;4990239;28;20490;-73
2023/04/14 05:50:24;;;;;;;3.83;3.20;;;;;;;;;;4995593;28;20057;-72
2023/04/14 05:52:50;;;;;;;6.72;4.47;;;;;;;;;;4989351;28;20124;-72
2023/04/14 05:55:16;;;;;;;6.00;4.50;;;;;;;;;;4989882;28;20058;-72
2023/04/14 05:57:42;;;;;;;5.70;4.32;;;;;;;;;;4989610;28;20046;-72
2023/04/14 06:00:09;;;;;;;4.38;3.45;;;;;;;;;;4989239;28;20055;-72
2023/04/14 06:02:41;;;;;;;5.70;3.58;;;;;;;;;;4989937;28;20066;-72
2023/04/14 06:05:07;;;;;;;4.38;3.80;;;;;;;;;;4990024;28;20772;-73
2023/04/14 06:07:34;;;;;;;2.60;2.40;;;;;;;;;;4989710;28;20062;-73
2023/04/14 06:09:59;;;;;;;5.75;2.80;;;;;;;;;;4989302;28;20042;-73
2023/04/14 06:12:25;;;;;;;4.13;2.55;;;;;;;;;;4990516;28;20053;-72
2023/04/14 06:14:50;;;;;;;3.10;2.80;;;;;;;;;;4989952;28;20049;-73
2023/04/14 06:17:16;;;;;;;5.30;2.75;;;;;;;;;;4989717;28;20050;-73
2023/04/14 06:19:41;;;;;;;3.78;2.90;;;;;;;;;;4989484;28;20054;-73
2023/04/14 06:22:07;;;;;;;3.28;2.80;;;;;;;;;;4993629;28;20048;-73
2023/04/14 06:24:33;;;;;;;3.28;2.70;;;;;;;;;;4989687;28;20053;-73
2023/04/14 06:26:59;;;;;;;4.40;3.60;;;;;;;;;;4989904;28;20050;-73
2023/04/14 06:29:25;;;;;;;4.88;4.07;;;;;;;;;;4989310;28;20070;-73
2023/04/14 06:31:50;;;;;;;4.60;3.38;;;;;;;;;;4989536;28;20085;-73
2023/04/14 06:34:16;;;;;;;6.55;5.07;;;;;;;;;;4988739;28;20113;-72
2023/04/14 06:36:42;;;;;;;5.45;4.72;;;;;;;;;;4988014;28;20046;-73
2023/04/14 06:39:07;;;;;;;7.38;4.55;;;;;;;;;;4989597;28;20419;-73
2023/04/14 06:41:33;;;;;;;6.40;5.38;;;;;;;;;;4988986;28;20062;-73
2023/04/14 06:44:02;;;;;;;6.90;4.65;;;;;;;;;;4987269;28;20054;-73
2023/04/14 06:46:28;;;;;;;6.78;4.93;;;;;;;;;;4989479;28;20038;-73
2023/04/14 06:48:53;;;;;;;5.47;4.47;;;;;;;;;;4989861;28;20148;-72
2023/04/14 06:51:18;;;;;;;4.63;4.03;;;;;;;;;;4989651;28;20039;-73
2023/04/14 06:53:44;;;;;;;4.03;3.60;;;;;;;;;;4987217;28;20058;-73
2023/04/14 06:56:09;;;;;;;4.10;3.63;;;;;;;;;;4988440;28;20129;-73
2023/04/14 06:58:35;;;;;;;3.85;3.20;;;;;;;;;;4989691;28;20046;-73
2023/04/14 07:01:02;;;;;;;5.18;3.53;;;;;;;;;;4989392;28;20081;-73
2023/04/14 07:03:29;;;;;;;3.38;3.08;;;;;;;;;;4988698;28;20096;-73
2023/04/14 07:06:05;;;;;;;4.65;3.80;;;;;;;;;;4990316;28;20065;-73
2023/04/14 07:08:31;;;;;;;6.20;4.00;;;;;;;;;;4986196;28;20038;-73
2023/04/14 07:11:01;;;;;;;4.93;3.35;;;;;;;;;;4993266;28;20038;-73
2023/04/14 07:13:27;;;;;;;5.65;3.67;;;;;;;;;;4992025;28;20057;-73
2023/04/14 07:15:53;;;;;;;3.60;3.28;;;;;;;;;;4991588;28;20042;-73
2023/04/14 07:18:20;;;;;;;4.00;3.55;;;;;;;;;;5008753;28;20136;-73
2023/04/14 07:20:45;;;;;;;5.10;3.85;;;;;;;;;;5012391;28;20069;-73
2023/04/14 07:23:11;;;;;;;3.78;3.17;;;;;;;;;;5012353;28;20049;-73
2023/04/14 07:25:37;;;;;;;4.75;3.50;;;;;;;;;;5011788;28;20169;-73
2023/04/14 07:28:03;;;;;;;4.13;3.38;;;;;;;;;;5011521;28;20121;-73
2023/04/14 07:30:29;;;;;;;5.03;3.70;;;;;;;;;;5011806;28;20042;-73
2023/04/14 07:32:54;;;;;;;4.53;4.10;;;;;;;;;;5012120;28;20072;-73
2023/04/14 07:35:20;;;;;;;5.38;3.45;;;;;;;;;;5012047;28;20069;-73
2023/04/14 07:37:45;;;;;;;3.70;3.25;;;;;;;;;;5011775;28;20049;-73
2023/04/14 07:40:10;;;;;;;3.80;3.40;;;;;;;;;;5011128;28;20145;-73
2023/04/14 07:42:36;;;;;;;4.18;3.05;;;;;;;;;;5011881;28;20413;-73
2023/04/14 07:45:05;;;;;;;3.08;2.83;;;;;;;;;;5011929;28;20582;-73
2023/04/14 07:47:30;;;;;;;4.82;2.25;;;;;;;;;;4991826;28;20069;-73
2023/04/14 07:49:57;;;;;;;2.90;2.70;;;;;;;;;;4998731;28;20522;-73
2023/04/14 07:52:22;;;;;;;8.70;3.42;;;;;;;;;;5006343;28;20095;-73
2023/04/14 07:54:47;;;;;;;2.08;1.98;;;;;;;;;;5011970;28;20046;-73
2023/04/14 07:57:13;;;;;;;2.70;2.50;;;;;;;;;;5012005;28;20049;-73
2023/04/14 07:59:41;;;;;;;2.30;2.10;;;;;;;;;;5011104;28;20042;-72
2023/04/14 08:02:07;;;;;;;3.55;2.10;;;;;;;;;;5010277;28;20049;-72
2023/04/14 08:04:33;;;;;;;2.60;2.40;;;;;;;;;;5011716;28;20080;-72
2023/04/14 08:06:58;;;;;;;2.00;1.80;;;;;;;;;;5011923;28;20118;-72
2023/04/14 08:09:24;;;;;;;2.55;2.35;;;;;;;;;;5011125;28;20391;-72
2023/04/14 08:11:49;;;;;;;2.30;2.10;;;;;;;;;;5010484;28;20581;-72
2023/04/14 08:14:14;;;;;;;2.10;1.85;;;;;;;;;;5010915;28;20053;-72
2023/04/14 08:16:40;;;;;;;2.17;1.50;;;;;;;;;;5010854;28;20050;-72
2023/04/14 08:19:05;;;;;;;2.03;1.83;;;;;;;;;;5011679;28;20041;-72
2023/04/14 08:21:31;;;;;;;1.77;1.67;;;;;;;;;;5010799;28;20049;-72
2023/04/14 08:23:57;;;;;;;2.03;1.83;;;;;;;;;;5010257;28;20490;-72
2023/04/14 08:26:22;;;;;;;1.83;1.55;;;;;;;;;;5003127;28;20037;-72
2023/04/14 08:28:48;;;;;;;2.20;1.92;;;;;;;;;;5010043;28;20045;-72
2023/04/14 08:31:13;;;;;;;4.72;1.88;;;;;;;;;;5011115;28;20041;-72
2023/04/14 08:33:39;;;;;;;2.38;2.17;;;;;;;;;;5009272;28;20088;-72
2023/04/14 08:36:05;;;;;;;1.60;1.50;;;;;;;;;;5010637;28;20045;-72
2023/04/14 08:38:30;;;;;;;2.10;1.90;;;;;;;;;;5011050;28;20046;-72
2023/04/14 08:41:01;;;;;;;2.35;1.50;;;;;;;;;;5009636;28;20811;-72
2023/04/14 08:43:27;;;;;;;1.65;1.40;;;;;;;;;;5010038;28;20054;-73
2023/04/14 08:45:53;;;;;;;1.40;1.30;;;;;;;;;;5009926;28;20042;-73
2023/04/14 08:48:19;;;;;;;3.00;1.58;;;;;;;;;;5010968;28;20038;-73
2023/04/14 08:51:17;;;;;;;2.00;1.80;;;;;;;;;;5011122;28;20077;-73
2023/04/14 08:53:46;;;;;;;1.40;1.30;;;;;;;;;;5010153;28;20077;-73
2023/04/14 08:56:15;;;;;;;1.10;1.00;;;;;;;;;;5010202;28;20983;-73
2023/04/14 08:58:40;;;;;;;1.10;1.00;;;;;;;;;;5010911;28;20056;-73
2023/04/14 09:01:07;;;;;;;1.23;1.13;;;;;;;;;;5010879;28;20049;-73
2023/04/14 09:03:33;;;;;;;1.48;1.38;;;;;;;;;;5008817;28;20116;-74
2023/04/14 09:05:59;;;;;;;1.75;1.65;;;;;;;;;;5010943;28;20438;-72
2023/04/14 09:08:26;;;;;;;1.60;1.38;;;;;;;;;;5010112;28;20069;-72
2023/04/14 09:10:53;;;;;;;2.17;2.08;;;;;;;;;;5010665;28;20053;-73
2023/04/14 09:13:19;;;;;;;1.75;1.65;;;;;;;;;;5010260;28;20100;-73
2023/04/14 09:15:45;;;;;;;2.00;1.67;;;;;;;;;;5009448;28;20074;-73
2023/04/14 09:18:10;;;;;;;1.42;1.33;;;;;;;;;;5009397;28;20118;-73
2023/04/14 09:20:36;;;;;;;0.75;0.75;;;;;;;;;;5010544;28;20049;-73
2023/04/14 09:23:03;;;;;;;1.15;0.90;;;;;;;;;;5010308;28;20573;-73
2023/04/14 09:25:28;;;;;;;0.95;0.95;;;;;;;;;;5009599;28;20037;-74
2023/04/14 09:27:54;;;;;;;1.15;1.10;;;;;;;;;;5009897;28;20434;-74
2023/04/14 09:30:20;;;;;;;2.70;1.60;;;;;;;;;;5009288;28;20375;-73
2023/04/14 09:32:52;;;;;;;1.35;1.25;;;;;;;;;;5010260;28;20073;-73
2023/04/14 09:35:17;;;;;;;1.42;1.33;;;;;;;;;;5010032;28;20054;-72
2023/04/14 09:37:44;;;;;;;1.13;1.10;;;;;;;;;;5009991;28;20453;-73
2023/04/14 09:40:10;;;;;;;1.40;1.30;;;;;;;;;;5009254;28;20038;-72
2023/04/14 09:42:41;;;;;;;1.02;0.90;;;;;;;;;;5009975;28;20410;-72
2023/04/14 09:45:08;;;;;;;0.90;0.90;;;;;;;;;;5009880;28;20145;-73
2023/04/14 09:47:34;;;;;;;1.80;1.08;;;;;;;;;;5009348;28;20042;-72
2023/04/14 09:50:02;;;;;;;1.77;1.20;;;;;;;;;;5010109;28;20506;-73
2023/04/14 09:52:41;;;;;;;2.42;1.42;;;;;;;;;;5008641;28;20069;-73
2023/04/14 09:55:10;;;;;;;1.85;1.35;;;;;;;;;;5008054;28;20141;-73
2023/04/14 09:57:37;;;;;;;1.52;1.13;;;;;;;;;;5009370;28;20462;-73
2023/04/14 10:00:14;;;;;;;0.88;0.85;;;;;;;;;;5010295;28;20574;-72
2023/04/14 10:02:54;;;;;;;1.10;1.10;;;;;;;;;;5001975;28;20129;-72
2023/04/14 10:05:24;;;;;;;2.35;1.40;;;;;;;;;;5009677;28;20750;-72
2023/04/14 10:07:50;;;;;;;1.50;1.40;;;;;;;;;;4989895;28;20057;-72
2023/04/14 10:10:15;;;;;;;3.70;2.38;;;;;;;;;;4990024;28;20035;-72
2023/04/14 10:12:44;;;;;;;1.15;1.00;;;;;;;;;;4987727;28;20050;-72
2023/04/14 10:15:11;;;;;;;3.15;1.63;;;;;;;;;;4988983;28;20765;-72
2023/04/14 10:17:38;;;;;;;1.63;1.50;;;;;;;;;;4989261;28;20088;-72
2023/04/14 10:20:05;;;;;;;1.77;1.67;;;;;;;;;;4990064;28;20419;-72
2023/04/14 10:22:31;;;;;;;1.10;1.00;;;;;;;;;;4988400;28;20074;-72
2023/04/14 10:24:58;;;;;;;1.40;1.30;;;;;;;;;;4995005;28;20097;-72
2023/04/14 10:27:29;;;;;;;2.80;1.77;;;;;;;;;;4979929;28;20109;-72
2023/04/14 10:29:55;;;;;;;1.88;1.70;;;;;;;;;;4989931;28;20050;-72
2023/04/14 10:32:23;;;;;;;2.67;1.70;;;;;;;;;;4989262;28;20106;-72
2023/04/14 10:35:06;;;;;;;1.77;1.67;;;;;;;;;;4988832;28;20047;-72
2023/04/14 10:37:32;;;;;;;2.22;2.03;;;;;;;;;;4982323;28;20081;-72
2023/04/14 10:39:59;;;;;;;2.78;2.28;;;;;;;;;;4991602;28;20066;-72
2023/04/14 10:42:25;;;;;;;3.05;2.30;;;;;;;;;;4992221;28;20046;-73
2023/04/14 10:45:20;;;;;;;2.78;1.98;;;;;;;;;;4993458;28;20065;-73
2023/04/14 10:47:46;;;;;;;2.30;2.10;;;;;;;;;;4991316;28;20424;-72
2023/04/14 10:50:14;;;;;;;4.25;2.30;;;;;;;;;;4991818;28;20050;-73
2023/04/14 10:52:49;;;;;;;2.80;2.60;;;;;;;;;;4993390;28;20050;-72
2023/04/14 10:55:15;;;;;;;4.80;3.20;;;;;;;;;;4993069;28;20061;-72
2023/04/14 10:57:42;;;;;;;5.53;3.13;;;;;;;;;;4991945;28;20046;-72
2023/04/14 11:00:27;;;;;;;3.67;3.08;;;;;;;;;;4993167;28;20141;-72
2023/04/14 11:03:03;;;;;;;3.95;3.47;;;;;;;;;;4991863;28;20042;-73
2023/04/14 11:05:32;;;;;;;4.05;3.17;;;;;;;;;;4992408;28;20043;-73
2023/04/14 11:07:58;;;;;;;5.60;3.30;;;;;;;;;;4992640;28;20050;-72
2023/04/14 11:10:25;;;;;;;3.42;3.13;;;;;;;;;;4992908;28;20067;-73
2023/04/14 11:12:56;;;;;;;2.70;2.42;;;;;;;;;;4992871;28;20042;-73
2023/04/14 11:15:21;;;;;;;5.95;3.63;;;;;;;;;;4992851;28;20042;-72
2023/04/14 11:17:47;;;;;;;4.88;3.83;;;;;;;;;;4987196;28;20089;-72
2023/04/14 11:20:21;;;;;;;3.63;3.30;;;;;;;;;;4987861;28;20076;-71
2023/04/14 11:22:48;;;;;;;4.85;3.08;;;;;;;;;;4992771;28;20523;-71
2023/04/14 11:25:18;;;;;;;7.35;3.15;;;;;;;;;;4992822;28;20137;-71
2023/04/14 11:27:46;;;;;;;5.25;3.92;;;;;;;;;;4992404;28;20050;-71
2023/04/14 11:30:16;;;;;;;5.75;3.00;;;;;;;;;;4997952;28;20045;-71
2023/04/14 11:32:50;;;;;;;6.05;3.15;;;;;;;;;;4992516;28;20038;-73
2023/04/14 11:35:21;;;;;;;6.72;4.07;;;;;;;;;;4992551;28;20415;-71
2023/04/14 11:37:47;;;;;;;3.60;3.30;;;;;;;;;;4992218;28;20053;-73
2023/04/14 11:40:14;;;;;;;4.45;3.00;;;;;;;;;;4991870;28;20065;-71
2023/04/14 11:42:45;;;;;;;4.40;3.30;;;;;;;;;;4986577;28;20042;-73
2023/04/14 11:45:12;;;;;;;7.30;4.03;;;;;;;;;;4991605;28;20038;-71
2023/04/14 11:47:37;;;;;;;5.03;3.25;;;;;;;;;;4991950;28;20499;-71
2023/04/14 11:50:04;;;;;;;4.18;3.63;;;;;;;;;;4991205;28;20076;-71
2023/04/14 11:52:33;;;;;;;3.60;2.85;;;;;;;;;;4990736;28;20139;-71
2023/04/14 11:55:00;;;;;;;2.83;2.47;;;;;;;;;;4991764;28;20038;-73
2023/04/14 11:57:26;;;;;;;2.33;2.13;;;;;;;;;;4992396;28;20096;-71
2023/04/14 11:59:51;;;;;;;3.60;2.90;;;;;;;;;;4992519;28;20058;-71
2023/04/14 12:02:19;;;;;;;4.47;2.53;;;;;;;;;;4991344;28;20580;-71
2023/04/14 12:04:50;;;;;;;2.83;2.42;;;;;;;;;;4991879;28;20061;-71
2023/04/14 12:07:18;;;;;;;4.38;2.85;;;;;;;;;;4992073;28;20046;-71
2023/04/14 12:09:46;;;;;;;4.03;3.28;;;;;;;;;;4991810;28;20055;-71
2023/04/14 12:12:13;;;;;;;2.35;2.08;;;;;;;;;;4991826;28;20050;-71
2023/04/14 12:14:41;;;;;;;2.80;2.58;;;;;;;;;;5009140;23;20188;-74
2023/04/14 12:17:08;;;;;;;2.60;2.17;;;;;;;;;;5027808;28;20100;-75
2023/04/14 12:19:34;;;;;;;4.55;2.50;;;;;;;;;;5026279;28;20576;-75
2023/04/14 12:22:01;;;;;;;3.25;2.20;;;;;;;;;;5026442;28;20060;-74
2023/04/14 12:24:37;;;;;;;2.13;1.92;;;;;;;;;;5007114;28;20050;-74
2023/04/14 12:27:05;;;;;;;3.17;2.30;;;;;;;;;;5008843;28;20394;-74
2023/04/14 12:29:34;;;;;;;3.50;2.30;;;;;;;;;;5010650;28;20053;-75
2023/04/14 12:32:01;;;;;;;4.68;2.67;;;;;;;;;;4985577;28;20057;-74
2023/04/14 12:34:28;;;;;;;5.88;2.28;;;;;;;;;;4989993;28;20086;-75
2023/04/14 12:36:54;;;;;;;2.67;2.47;;;;;;;;;;4997704;28;20050;-75
2023/04/14 12:39:23;;;;;;;4.90;2.00;;;;;;;;;;4974177;28;20050;-74
2023/04/14 12:41:48;;;;;;;2.85;2.22;;;;;;;;;;4991119;28;20131;-75
2023/04/14 12:44:19;;;;;;;5.03;2.28;;;;;;;;;;4973918;28;20190;-74
2023/04/14 12:46:50;;;;;;;4.90;1.90;;;;;;;;;;4994993;28;20057;-75
2023/04/14 12:49:29;;;;;;;2.45;1.90;;;;;;;;;;5019291;28;20082;-75
2023/04/14 12:51:55;;;;;;;2.50;2.05;;;;;;;;;;5013777;28;20136;-75
2023/04/14 12:54:20;;;;;;;1.80;1.70;;;;;;;;;;5026192;28;20120;-75
2023/04/14 12:56:46;;;;;;;3.35;2.08;;;;;;;;;;5011195;28;20049;-75
2023/04/14 12:59:13;;;;;;;3.83;1.83;;;;;;;;;;5000679;28;20058;-74
2023/04/14 13:01:39;;;;;;;4.30;1.77;;;;;;;;;;5007203;28;20050;-75
2023/04/14 13:04:05;;;;;;;1.38;1.27;;;;;;;;;;5010518;28;20490;-74
2023/04/14 13:06:30;;;;;;;3.35;1.90;;;;;;;;;;5010786;28;20053;-74
2023/04/14 13:08:57;;;;;;;2.70;2.00;;;;;;;;;;5008591;28;20161;-74
2023/04/14 13:11:23;;;;;;;3.30;2.13;;;;;;;;;;5002096;28;20065;-75
2023/04/14 13:13:49;;;;;;;3.05;2.10;;;;;;;;;;5008864;28;20547;-74
2023/04/14 13:16:16;;;;;;;2.35;1.90;;;;;;;;;;5008911;28;20057;-74
2023/04/14 13:18:42;;;;;;;2.10;1.30;;;;;;;;;;5010621;28;20052;-74
2023/04/14 13:21:09;;;;;;;2.10;1.80;;;;;;;;;;5000428;28;20042;-74
2023/04/14 13:23:34;;;;;;;3.05;1.55;;;;;;;;;;5008257;28;20080;-74
2023/04/14 13:26:00;;;;;;;1.88;1.20;;;;;;;;;;5010470;28;20149;-74
2023/04/14 13:28:26;;;;;;;3.05;1.20;;;;;;;;;;5009176;28;20081;-74
2023/04/14 13:30:53;;;;;;;0.80;0.80;;;;;;;;;;5009881;28;20048;-74
2023/04/14 13:33:19;;;;;;;1.33;0.90;;;;;;;;;;5008397;28;20042;-74
2023/04/14 13:35:45;;;;;;;1.30;1.20;;;;;;;;;;5007682;28;20053;-74
2023/04/14 13:38:11;;;;;;;2.75;1.73;;;;;;;;;;5010325;28;20132;-74
2023/04/14 13:40:36;;;;;;;1.80;1.38;;;;;;;;;;5010158;28;20113;-74
2023/04/14 13:43:02;;;;;;;7.15;2.20;;;;;;;;;;5002134;28;20041;-74
2023/04/14 13:45:28;;;;;;;2.72;2.05;;;;;;;;;;5007678;28;20045;-74
2023/04/14 13:47:54;;;;;;;1.40;1.30;;;;;;;;;;5008811;28;20046;-74
2023/04/14 13:50:20;;;;;;;2.40;1.30;;;;;;;;;;5010226;28;20418;-75
2023/04/14 13:52:45;;;;;;;1.48;1.38;;;;;;;;;;5008443;28;20050;-74
2023/04/14 13:55:11;;;;;;;3.38;1.48;;;;;;;;;;5008222;28;20046;-74
2023/04/14 13:57:36;;;;;;;2.25;1.65;;;;;;;;;;5009536;28;20072;-74
2023/04/14 14:00:08;;;;;;;2.25;1.70;;;;;;;;;;4992189;28;20034;-74
2023/04/14 14:02:35;;;;;;;2.83;1.55;;;;;;;;;;4988825;28;20050;-74
2023/04/14 14:05:01;;;;;;;2.65;1.58;;;;;;;;;;5004953;28;20391;-74
2023/04/14 14:07:26;;;;;;;3.33;1.35;;;;;;;;;;5008007;28;20041;-74
2023/04/14 14:09:52;;;;;;;1.13;1.02;;;;;;;;;;5009949;28;20060;-74
2023/04/14 14:12:17;;;;;;;1.27;1.17;;;;;;;;;;5008602;28;20037;-74
2023/04/14 14:14:43;;;;;;;1.40;1.30;;;;;;;;;;4990759;28;20551;-75
2023/04/14 14:17:08;;;;;;;1.40;1.30;;;;;;;;;;5009745;28;20172;-74
2023/04/14 14:19:34;;;;;;;1.98;1.30;;;;;;;;;;5009327;28;20156;-73
2023/04/14 14:22:00;;;;;;;1.50;1.23;;;;;;;;;;5009751;28;20041;-75
2023/04/14 14:24:27;;;;;;;2.72;1.05;;;;;;;;;;4992164;28;20042;-73
2023/04/14 14:26:53;;;;;;;1.40;1.30;;;;;;;;;;5010381;28;20564;-73
2023/04/14 14:29:18;;;;;;;2.13;1.27;;;;;;;;;;5009145;28;20153;-73
2023/04/14 14:31:43;;;;;;;1.40;1.30;;;;;;;;;;5007202;28;20077;-75
2023/04/14 14:34:09;;;;;;;2.38;1.50;;;;;;;;;;5008425;28;20089;-73
2023/04/14 14:36:34;;;;;;;3.83;1.20;;;;;;;;;;5009204;28;20410;-73
2023/04/14 14:39:00;;;;;;;0.88;0.60;;;;;;;;;;4991794;28;20099;-74
2023/04/14 14:41:26;;;;;;;1.65;1.45;;;;;;;;;;5007475;28;20054;-74
2023/04/14 14:43:51;;;;;;;2.88;2.00;;;;;;;;;;5009374;28;20046;-73
2023/04/14 14:46:17;;;;;;;4.40;1.95;;;;;;;;;;5009283;28;20406;-73